Jeff Brumfield — WDE3528 — position and weather

sailwx.info

Track history (hours):
 
Tides and Currents Weather Stations Pressure Air Temp Water Temp Dewpoint Dewpoint Depression Visibility Wind Speed Wind Dir Waves Ship Positions

Jeff Brumfield

Owner: Florida Marine, LLC, Mandeville, LA. More information available from US FCC via Universal Licensing System and Coast Guard Vessel Documentation Center.

Last reported at 2018-Jul-22 14:27 UTC. Time now 2018-Jul-22 16:40 UTC.
Position N 27°51' W 097°31'.

Length 27 m; draft 3.2 m.

Type: Towing. MMSI: 367340440.

Date/timePositionNaut miles runAvg speedWind from/ knotsBaromVisibWave heightAir tempDewpointWater temp
2018-Jul-22 14:27N 27°51' W 097°31'3 6.9
2018-Jul-22 14:00N 27°49' W 097°28'3 6.4
2018-Jul-22 13:29N 27°49' W 097°24'3 6.9
2018-Jul-22 12:59N 27°49' W 097°20'3 6.9
2018-Jul-22 12:29N 27°49' W 097°16'4 7.4
2018-Jul-22 12:00N 27°49' W 097°12'4 7.7
2018-Jul-22 11:29N 27°50' W 097°08'4 7.9
2018-Jul-22 10:59N 27°51' W 097°04'2 4.5
2018-Jul-22 10:30N 27°53' W 097°03'3 5.6
2018-Jul-22 10:00N 27°56' W 097°03'3 5.7
2018-Jul-22 09:30N 27°59' W 097°03'3 6.4
2018-Jul-22 09:00N 28°01' W 097°01'3 6.3
2018-Jul-22 08:30N 28°03' W 096°59'3 6.3
2018-Jul-22 07:59N 28°06' W 096°56'3 5.5
2018-Jul-22 07:30N 28°08' W 096°55'3 5.6
2018-Jul-22 07:00N 28°10' W 096°52'3 5.5
2018-Jul-22 06:23N 28°12' W 096°49'2 5.1
2018-Jul-22 05:59N 28°14' W 096°48'1 1.4
2018-Jul-22 05:26N 28°14' W 096°47'3 6.4
2018-Jul-22 04:59N 28°16' W 096°44'3 6.0
2018-Jul-22 04:30N 28°18' W 096°42'3 5.8
2018-Jul-22 03:56N 28°20' W 096°39'2 5.2
2018-Jul-22 03:30N 28°21' W 096°37'3 5.0
2018-Jul-22 03:00N 28°22' W 096°34'3 5.2
2018-Jul-22 02:28N 28°23' W 096°31'2 5.2
2018-Jul-22 02:00N 28°25' W 096°29'3 5.2
2018-Jul-22 01:26N 28°26' W 096°26'37 4.5
2018-Jul-21 17:08N 28°44' W 095°49'1 6.0
2018-Jul-21 17:00N 28°45' W 095°48'5 5.9
2018-Jul-21 16:09N 28°45' W 095°42'2 6.1
2018-Jul-21 15:48N 28°46' W 095°40'2 5.7
2018-Jul-21 15:30N 28°46' W 095°38'3 6.2
2018-Jul-21 14:59N 28°47' W 095°35'3 6.1
2018-Jul-21 14:30N 28°49' W 095°32'6 5.8
2018-Jul-21 13:28N 28°52' W 095°27'2 4.8
2018-Jul-21 13:00N 28°54' W 095°25'1 1.4
2018-Jul-21 12:21N 28°54' W 095°24'1 4.3
2018-Jul-21 12:00N 28°54' W 095°22'1 1.8
2018-Jul-21 11:26N 28°54' W 095°23'1 2.8
2018-Jul-21 11:00N 28°54' W 095°24'0 0.8
2018-Jul-21 10:28N 28°54' W 095°24'2 3.6
2018-Jul-21 10:00N 28°54' W 095°22'0 0.7
2018-Jul-21 09:30N 28°54' W 095°22'3 5.5
2018-Jul-21 09:00N 28°56' W 095°19'3 5.3
2018-Jul-21 08:30N 28°58' W 095°17'3 5.5
2018-Jul-21 08:00N 29°00' W 095°15'3 5.3
2018-Jul-21 07:30N 29°02' W 095°14'2 5.0
2018-Jul-21 07:00N 29°05' W 095°13'3 4.9
2018-Jul-21 06:27N 29°07' W 095°11'2 4.9
2018-Jul-21 06:00N 29°09' W 095°09'3 5.5
2018-Jul-21 05:30N 29°10' W 095°07'3 5.9
2018-Jul-21 05:00N 29°12' W 095°04'3 5.3
2018-Jul-21 04:30N 29°14' W 095°02'3 5.4
2018-Jul-21 04:00N 29°16' W 094°60'2 4.5
2018-Jul-21 03:30N 29°17' W 094°58'3 5.2
2018-Jul-21 03:00N 29°17' W 094°55'3 5.3
2018-Jul-21 02:30N 29°19' W 094°52'3 6.1
2018-Jul-21 02:00N 29°21' W 094°50'3 6.1
2018-Jul-21 01:30N 29°23' W 094°47'3 5.0
2018-Jul-21 01:00N 29°24' W 094°45'3 6.4
2018-Jul-21 00:30N 29°26' W 094°42'2 4.0
2018-Jul-21 00:00N 29°28' W 094°40'3 6.3
2018-Jul-20 23:30N 29°29' W 094°37'3 6.6
2018-Jul-20 23:00N 29°30' W 094°33'3 6.6
2018-Jul-20 22:30N 29°31' W 094°30'3 6.5
2018-Jul-20 22:00N 29°34' W 094°27'3 5.1
2018-Jul-20 21:28N 29°35' W 094°25'3 5.6
2018-Jul-20 21:00N 29°36' W 094°22'3 6.1
2018-Jul-20 20:30N 29°38' W 094°19'3 6.2
2018-Jul-20 20:00N 29°39' W 094°16'3 6.2
2018-Jul-20 19:30N 29°41' W 094°13'3 6.0
2018-Jul-20 19:00N 29°41' W 094°09'3 6.0
2018-Jul-20 18:30N 29°43' W 094°07'3 5.8
2018-Jul-20 18:00N 29°45' W 094°04'3 5.7
2018-Jul-20 17:30N 29°47' W 094°02'3 5.7
2018-Jul-20 17:00N 29°49' W 093°59'3 5.3
2018-Jul-20 16:30N 29°51' W 093°57'3 6.9
2018-Jul-20 16:00N 29°53' W 093°55'4 7.0
2018-Jul-20 15:30N 29°56' W 093°52'3 5.6
2018-Jul-20 15:00N 29°59' W 093°50'3 5.3
2018-Jul-20 14:30N 29°59' W 093°47'3 6.2
2018-Jul-20 14:00N 30°01' W 093°45'3 5.5
2018-Jul-20 13:30N 30°03' W 093°42'2 4.8
2018-Jul-20 13:00N 30°04' W 093°40'2 4.8
2018-Jul-20 12:30N 30°04' W 093°37'2 4.7
2018-Jul-20 12:00N 30°04' W 093°34'2 4.6
2018-Jul-20 11:30N 30°04' W 093°31'2 4.7
2018-Jul-20 11:00N 30°04' W 093°29'2 4.4
2018-Jul-20 10:30N 30°04' W 093°26'2 4.4
2018-Jul-20 10:00N 30°04' W 093°24'2 4.3
2018-Jul-20 09:30N 30°04' W 093°21'1 1.7
2018-Jul-20 09:00N 30°04' W 093°21'2 3.4
2018-Jul-20 08:30N 30°06' W 093°20'2 4.8
2018-Jul-20 08:00N 30°08' W 093°20'0 0.2
2018-Jul-20 07:30N 30°08' W 093°19'0 0.0
2018-Jul-20 07:00N 30°08' W 093°19'0 0.0
2018-Jul-20 06:30N 30°08' W 093°19'0 0.0
2018-Jul-20 06:00N 30°08' W 093°19'0 0.0
2018-Jul-20 05:30N 30°08' W 093°19'0 0.0
2018-Jul-20 05:00N 30°08' W 093°19'0 0.0
2018-Jul-20 04:30N 30°08' W 093°19'0 0.0
2018-Jul-20 04:00N 30°08' W 093°19'0 0.0
2018-Jul-20 03:30N 30°08' W 093°19'0 0.0
2018-Jul-20 03:00N 30°08' W 093°19'0 0.0
2018-Jul-20 02:30N 30°08' W 093°19'0 0.0
2018-Jul-20 02:00N 30°08' W 093°19'0 0.0
2018-Jul-20 01:30N 30°08' W 093°19'0 0.0
2018-Jul-20 01:00N 30°08' W 093°19'1 2.5
2018-Jul-20 00:30N 30°07' W 093°20'2 4.2
2018-Jul-20 00:00N 30°05' W 093°20'1 2.8
2018-Jul-19 23:30N 30°04' W 093°21'0 0.2
2018-Jul-19 23:00N 30°04' W 093°21'0 0.0
2018-Jul-19 22:30N 30°04' W 093°21'0 0.0
2018-Jul-19 22:00N 30°04' W 093°21'0 0.0
2018-Jul-19 21:30N 30°04' W 093°21'0 0.0
2018-Jul-19 21:00N 30°04' W 093°21'2 3.7
2018-Jul-19 20:30N 30°05' W 093°20'0 0.7
2018-Jul-19 20:00N 30°05' W 093°20'0 0.0
2018-Jul-19 19:30N 30°05' W 093°20'1 1.5
2018-Jul-19 19:00N 30°04' W 093°21'0 0.1
2018-Jul-19 18:30N 30°04' W 093°21'0 0.0
2018-Jul-19 18:00N 30°04' W 093°21'0 0.0
2018-Jul-19 17:30N 30°04' W 093°21'0 0.0
2018-Jul-19 17:00N 30°04' W 093°21'1 2.3
2018-Jul-19 16:30N 30°05' W 093°20'2 3.6
2018-Jul-19 16:00N 30°06' W 093°18'0 0.1
2018-Jul-19 15:30N 30°06' W 093°18'3 5.8
2018-Jul-19 15:00N 30°04' W 093°21'4 4.1
2018-Jul-19 14:00N 30°08' W 093°19'0 0.2
2018-Jul-19 13:30N 30°08' W 093°19'0 0.0
2018-Jul-19 13:00N 30°08' W 093°19'0 0.0
2018-Jul-19 12:30N 30°08' W 093°19'0 0.0
2018-Jul-19 12:00N 30°08' W 093°19'0 0.0
2018-Jul-19 11:30N 30°08' W 093°19'0 0.0
2018-Jul-19 11:00N 30°08' W 093°19'0 0.0
2018-Jul-19 10:30N 30°08' W 093°19'0 0.0
2018-Jul-19 10:00N 30°08' W 093°19'0 0.0
2018-Jul-19 09:30N 30°08' W 093°19'0 0.0
2018-Jul-19 09:00N 30°08' W 093°19'0 0.0
2018-Jul-19 08:30N 30°08' W 093°19'0 0.0
2018-Jul-19 08:00N 30°08' W 093°19'0 0.0
2018-Jul-19 07:30N 30°08' W 093°19'0 0.0
2018-Jul-19 07:00N 30°08' W 093°19'0 0.0
2018-Jul-19 06:30N 30°08' W 093°19'0 0.0
2018-Jul-19 06:00N 30°08' W 093°19'0 0.0
2018-Jul-19 05:30N 30°08' W 093°19'0 0.0
2018-Jul-19 05:00N 30°08' W 093°19'0 0.0
2018-Jul-19 04:30N 30°08' W 093°19'0 0.0
2018-Jul-19 04:00N 30°08' W 093°19'0 0.1
2018-Jul-19 03:30N 30°08' W 093°19'0 0.0
2018-Jul-19 03:00N 30°08' W 093°19'0 0.0
2018-Jul-19 02:30N 30°08' W 093°19'0 0.0
2018-Jul-19 01:59N 30°08' W 093°19'0 0.0
2018-Jul-19 01:30N 30°08' W 093°19'0 0.0
2018-Jul-19 01:00N 30°08' W 093°19'0 0.1
2018-Jul-19 00:30N 30°08' W 093°20'0 0.6
2018-Jul-19 00:00N 30°08' W 093°20'2 4.4
2018-Jul-18 23:30N 30°06' W 093°20'1 2.3
2018-Jul-18 23:00N 30°06' W 093°18'1 2.0
2018-Jul-18 22:30N 30°05' W 093°17'1 1.7
2018-Jul-18 22:00N 30°05' W 093°17'0 0.0
2018-Jul-18 21:30N 30°05' W 093°17'0 0.0
2018-Jul-18 21:00N 30°05' W 093°17'0 0.0
2018-Jul-18 20:30N 30°05' W 093°17'0 0.0
2018-Jul-18 20:00N 30°05' W 093°17'0 0.0
2018-Jul-18 19:30N 30°05' W 093°17'0 0.0
2018-Jul-18 19:00N 30°05' W 093°17'0 0.0
2018-Jul-18 18:30N 30°05' W 093°17'0 0.0
2018-Jul-18 18:00N 30°05' W 093°17'0 0.0
2018-Jul-18 17:30N 30°05' W 093°17'0 0.0
2018-Jul-18 17:00N 30°05' W 093°17'0 0.0
2018-Jul-18 16:30N 30°05' W 093°17'0 0.0
2018-Jul-18 16:00N 30°05' W 093°17'0 0.0
2018-Jul-18 15:30N 30°05' W 093°17'0 0.0
2018-Jul-18 15:00N 30°05' W 093°17'0 0.0
2018-Jul-18 14:30N 30°05' W 093°17'0 0.0
2018-Jul-18 13:30N 30°05' W 093°17'0 0.0
2018-Jul-18 13:00N 30°05' W 093°17'0 0.0
2018-Jul-18 12:30N 30°05' W 093°17'0 0.0
2018-Jul-18 12:00N 30°05' W 093°17'0 0.0
2018-Jul-18 11:30N 30°05' W 093°17'0 0.0
2018-Jul-18 10:30N 30°05' W 093°17'0 0.0
2018-Jul-18 10:00N 30°05' W 093°17'0 0.0
2018-Jul-18 09:30N 30°05' W 093°17'0 0.0
2018-Jul-18 09:00N 30°05' W 093°17'0 0.0
2018-Jul-18 08:30N 30°05' W 093°17'0 0.0
2018-Jul-18 07:59N 30°05' W 093°17'0 0.0
2018-Jul-18 07:30N 30°05' W 093°17'0 0.0
2018-Jul-18 07:00N 30°05' W 093°17'0 0.0
2018-Jul-18 06:30N 30°05' W 093°17'0 0.0
2018-Jul-18 06:00N 30°05' W 093°17'0 0.0
2018-Jul-18 05:30N 30°05' W 093°17'0 0.0
2018-Jul-18 04:59N 30°05' W 093°17'0 0.0
2018-Jul-18 04:30N 30°05' W 093°17'0 0.0
2018-Jul-18 04:00N 30°05' W 093°17'0 0.0
2018-Jul-18 03:30N 30°05' W 093°17'0 0.0
2018-Jul-18 03:00N 30°05' W 093°17'0 0.1
2018-Jul-18 02:30N 30°05' W 093°17'0 0.0
2018-Jul-18 02:00N 30°05' W 093°17'0 0.0
2018-Jul-18 01:27N 30°05' W 093°17'0 0.0
2018-Jul-18 01:00N 30°05' W 093°17'0 0.0
2018-Jul-18 00:30N 30°05' W 093°17'0 0.0
2018-Jul-18 00:00N 30°05' W 093°17'1 2.6
2018-Jul-17 23:30N 30°03' W 093°16'0 0.5
2018-Jul-17 23:00N 30°03' W 093°16'0 0.3
2018-Jul-17 22:30N 30°03' W 093°16'1 1.1
2018-Jul-17 22:00N 30°03' W 093°16'0 0.1
2018-Jul-17 21:30N 30°03' W 093°16'0 0.0
2018-Jul-17 21:00N 30°03' W 093°16'0 0.0
2018-Jul-17 20:30N 30°03' W 093°16'0 0.0
2018-Jul-17 20:00N 30°03' W 093°16'0 0.0
2018-Jul-17 19:30N 30°03' W 093°16'0 0.0
2018-Jul-17 19:00N 30°03' W 093°16'0 0.0
2018-Jul-17 18:30N 30°03' W 093°16'0 0.0
2018-Jul-17 18:00N 30°03' W 093°16'0 0.0
2018-Jul-17 17:30N 30°03' W 093°16'0 0.0
2018-Jul-17 17:00N 30°03' W 093°16'0 0.0
2018-Jul-17 16:30N 30°03' W 093°16'0 0.0
2018-Jul-17 16:00N 30°03' W 093°16'0 0.0
2018-Jul-17 15:30N 30°03' W 093°16'0 0.0
2018-Jul-17 15:00N 30°03' W 093°16'0 0.0
2018-Jul-17 14:30N 30°03' W 093°16'0 0.0
2018-Jul-17 14:00N 30°03' W 093°16'0 0.0
2018-Jul-17 13:30N 30°03' W 093°16'0 0.0
2018-Jul-17 13:00N 30°03' W 093°16'0 0.0
2018-Jul-17 12:29N 30°03' W 093°16'0 0.2
2018-Jul-17 12:00N 30°03' W 093°16'1 1.8
2018-Jul-17 11:30N 30°02' W 093°15'2 3.9
2018-Jul-17 11:00N 30°00' W 093°14'1 2.2
2018-Jul-17 10:30N 29°59' W 093°13'0 0.1
2018-Jul-17 10:00N 29°59' W 093°13'0 1.0
2018-Jul-17 09:30N 29°59' W 093°12'1 2.1
2018-Jul-17 09:00N 29°58' W 093°12'0 1.0
2018-Jul-17 08:30N 29°58' W 093°11'0 0.0
2018-Jul-17 08:00N 29°58' W 093°11'0 0.0
2018-Jul-17 07:30N 29°58' W 093°11'0 0.1
2018-Jul-17 07:00N 29°58' W 093°11'0 0.0
2018-Jul-17 06:28N 29°58' W 093°11'0 0.0
2018-Jul-17 06:00N 29°58' W 093°11'0 0.0
2018-Jul-17 05:20N 29°58' W 093°11'0 0.0
2018-Jul-17 05:00N 29°58' W 093°11'0 0.0
2018-Jul-17 04:22N 29°58' W 093°11'0 0.1
2018-Jul-17 03:58N 29°58' W 093°11'0 0.1
2018-Jul-17 03:30N 29°58' W 093°11'0 0.0
2018-Jul-17 03:00N 29°58' W 093°11'0 0.0
2018-Jul-17 02:30N 29°58' W 093°11'0 0.0
2018-Jul-17 02:00N 29°58' W 093°11'0 0.0
2018-Jul-17 01:30N 29°58' W 093°11'0 0.0
2018-Jul-17 01:00N 29°58' W 093°11'0 0.0
2018-Jul-17 00:30N 29°58' W 093°11'0 0.0
2018-Jul-16 23:30N 29°58' W 093°11'0 0.0
2018-Jul-16 23:00N 29°58' W 093°11'0 0.0
2018-Jul-16 22:30N 29°58' W 093°11'0 0.0
2018-Jul-16 22:00N 29°58' W 093°11'0 0.0
2018-Jul-16 21:30N 29°58' W 093°11'0 0.0
2018-Jul-16 21:00N 29°58' W 093°11'0 0.0
2018-Jul-16 20:30N 29°58' W 093°11'0 0.0
2018-Jul-16 20:00N 29°58' W 093°11'0 0.0
2018-Jul-16 19:30N 29°58' W 093°11'0 0.0
2018-Jul-16 19:00N 29°58' W 093°11'0 0.0
2018-Jul-16 18:30N 29°58' W 093°11'0 0.0
2018-Jul-16 18:00N 29°58' W 093°11'0 0.0
2018-Jul-16 17:30N 29°58' W 093°11'0 0.0
2018-Jul-16 17:00N 29°58' W 093°11'0 0.0
2018-Jul-16 16:30N 29°58' W 093°11'0 0.0
2018-Jul-16 16:00N 29°58' W 093°11'0 0.0
2018-Jul-16 15:30N 29°58' W 093°11'0 0.0
2018-Jul-16 15:00N 29°58' W 093°11'0 0.1
2018-Jul-16 14:30N 29°58' W 093°11'0 0.0
2018-Jul-16 14:00N 29°58' W 093°11'0 0.0
2018-Jul-16 13:28N 29°58' W 093°11'0 0.4
2018-Jul-16 13:00N 29°58' W 093°11'2 4.4
2018-Jul-16 12:30N 29°56' W 093°09'1 1.4
2018-Jul-16 11:57N 29°56' W 093°08'0 0.0
2018-Jul-16 11:29N 29°56' W 093°08'0 0.0
2018-Jul-16 10:55N 29°56' W 093°08'0 0.0
2018-Jul-16 10:31N 29°56' W 093°08'0 0.0
2018-Jul-16 09:57N 29°56' W 093°08'0 0.0
2018-Jul-16 09:30N 29°56' W 093°08'0 0.0
2018-Jul-16 09:00N 29°56' W 093°08'0 0.0
2018-Jul-16 08:30N 29°56' W 093°08'0 0.0
2018-Jul-16 07:58N 29°56' W 093°08'0 0.0
2018-Jul-16 07:29N 29°56' W 093°08'0 0.0
2018-Jul-16 06:58N 29°56' W 093°08'0 0.2
2018-Jul-16 06:30N 29°56' W 093°08'1 1.9
2018-Jul-16 05:58N 29°56' W 093°07'2 3.3
2018-Jul-16 05:27N 29°56' W 093°05'34 1.0
2018-Jul-14 19:22N 29°53' W 092°26'2 5.2
2018-Jul-14 19:00N 29°53' W 092°24'3 4.7
2018-Jul-14 18:27N 29°52' W 092°22'2 4.2
2018-Jul-14 18:00N 29°51' W 092°20'2 4.0
2018-Jul-14 17:30N 29°50' W 092°18'0 0.1
2018-Jul-14 17:00N 29°50' W 092°18'0 0.2
2018-Jul-14 16:30N 29°50' W 092°18'0 0.0
2018-Jul-14 16:00N 29°50' W 092°18'0 0.0
2018-Jul-14 15:30N 29°50' W 092°18'0 0.0
2018-Jul-14 15:00N 29°50' W 092°18'0 0.0
2018-Jul-14 14:30N 29°50' W 092°18'0 0.0
2018-Jul-14 13:30N 29°50' W 092°18'0 0.0
2018-Jul-14 13:00N 29°50' W 092°18'0 0.0
2018-Jul-14 12:30N 29°50' W 092°18'0 0.0
2018-Jul-14 12:00N 29°50' W 092°18'0 0.0
2018-Jul-14 11:30N 29°50' W 092°18'0 0.0
2018-Jul-14 11:00N 29°50' W 092°18'0 0.0
2018-Jul-14 10:30N 29°50' W 092°18'0 0.0
2018-Jul-14 10:00N 29°50' W 092°18'0 0.0
2018-Jul-14 09:30N 29°50' W 092°18'0 0.0
2018-Jul-14 09:00N 29°50' W 092°18'0 0.0
2018-Jul-14 08:30N 29°50' W 092°18'0 0.0
2018-Jul-14 07:57N 29°50' W 092°18'0 0.0
2018-Jul-14 07:30N 29°50' W 092°18'0 0.0
2018-Jul-14 07:00N 29°50' W 092°18'0 0.0
2018-Jul-14 06:30N 29°50' W 092°18'0 0.0
2018-Jul-14 06:00N 29°50' W 092°18'0 0.0
2018-Jul-14 05:30N 29°50' W 092°18'0 0.0
2018-Jul-14 05:00N 29°50' W 092°18'0 0.0
2018-Jul-14 04:30N 29°50' W 092°18'0 0.0
2018-Jul-14 04:00N 29°50' W 092°18'0 0.0
2018-Jul-14 03:27N 29°50' W 092°18'0 0.0
2018-Jul-14 03:00N 29°50' W 092°18'0 0.0
2018-Jul-14 02:30N 29°50' W 092°18'0 0.0
2018-Jul-14 02:00N 29°50' W 092°18'0 0.0
2018-Jul-14 01:27N 29°50' W 092°18'0 0.0
2018-Jul-14 01:00N 29°50' W 092°18'0 0.0
2018-Jul-14 00:27N 29°50' W 092°18'0 0.0
2018-Jul-14 00:00N 29°50' W 092°18'0 0.0
2018-Jul-13 23:30N 29°50' W 092°18'0 0.0
2018-Jul-13 23:00N 29°50' W 092°18'0 0.0
2018-Jul-13 22:30N 29°50' W 092°18'0 0.0
2018-Jul-13 22:00N 29°50' W 092°18'0 0.0
2018-Jul-13 21:30N 29°50' W 092°18'0 0.0
2018-Jul-13 21:00N 29°50' W 092°18'0 0.0
2018-Jul-13 20:30N 29°50' W 092°18'0 0.0
2018-Jul-13 20:00N 29°50' W 092°18'0 0.0
2018-Jul-13 19:30N 29°50' W 092°18'0 0.0
2018-Jul-13 19:00N 29°50' W 092°18'0 0.0
2018-Jul-13 18:30N 29°50' W 092°18'0 0.0
2018-Jul-13 17:57N 29°50' W 092°18'0 0.0
2018-Jul-13 17:30N 29°50' W 092°18'0 0.0
2018-Jul-13 17:00N 29°50' W 092°18'0 0.0
2018-Jul-13 16:30N 29°50' W 092°18'0 0.0
2018-Jul-13 16:00N 29°50' W 092°18'0 0.0
2018-Jul-13 15:30N 29°50' W 092°18'0 0.0
2018-Jul-13 15:00N 29°50' W 092°18'0 0.0
2018-Jul-13 14:00N 29°50' W 092°18'0 0.0
2018-Jul-13 13:30N 29°50' W 092°18'0 0.0
2018-Jul-13 13:00N 29°50' W 092°18'0 0.0
2018-Jul-13 12:30N 29°50' W 092°18'0 0.0
2018-Jul-13 12:00N 29°50' W 092°18'0 0.0
2018-Jul-13 11:27N 29°50' W 092°18'0 0.0
2018-Jul-13 10:54N 29°50' W 092°18'0 0.0
2018-Jul-13 10:27N 29°50' W 092°18'0 0.0
2018-Jul-13 10:00N 29°50' W 092°18'0 0.0
2018-Jul-13 09:30N 29°50' W 092°18'0 0.0
2018-Jul-13 09:00N 29°50' W 092°18'0 0.0
2018-Jul-13 08:22N 29°50' W 092°18'0 0.0
2018-Jul-13 08:00N 29°50' W 092°18'0 0.0
2018-Jul-13 07:31N 29°50' W 092°18'0 0.0
2018-Jul-13 07:00N 29°50' W 092°18'0 0.0
2018-Jul-13 06:28N 29°50' W 092°18'0 0.0
2018-Jul-13 06:00N 29°50' W 092°18'0 0.0
2018-Jul-13 05:30N 29°50' W 092°18'0 0.0
2018-Jul-13 05:00N 29°50' W 092°18'0 0.0
2018-Jul-13 04:30N 29°50' W 092°18'0 0.0
2018-Jul-13 04:00N 29°50' W 092°18'0 0.0
2018-Jul-13 03:30N 29°50' W 092°18'0 0.0
2018-Jul-13 03:01N 29°50' W 092°18'0 0.0
2018-Jul-13 02:30N 29°50' W 092°18'0 0.0
2018-Jul-13 02:00N 29°50' W 092°18'0 0.0
2018-Jul-13 01:30N 29°50' W 092°18'0 0.0
2018-Jul-13 01:01N 29°50' W 092°18'0 0.0
2018-Jul-13 00:29N 29°50' W 092°18'0 0.1
2018-Jul-13 00:00N 29°50' W 092°18'0 0.0
2018-Jul-12 23:30N 29°50' W 092°18'1 1.6
2018-Jul-12 23:01N 29°50' W 092°19'3 5.0
2018-Jul-12 22:30N 29°51' W 092°22'1 3.0
2018-Jul-12 22:00N 29°52' W 092°23'0 0.0
2018-Jul-12 21:30N 29°52' W 092°23'0 0.0
2018-Jul-12 21:00N 29°52' W 092°23'0 0.0
2018-Jul-12 20:31N 29°52' W 092°23'0 0.0
2018-Jul-12 20:01N 29°52' W 092°23'0 0.0
2018-Jul-12 19:30N 29°52' W 092°23'0 0.0
2018-Jul-12 19:01N 29°52' W 092°23'0 0.0
2018-Jul-12 18:31N 29°52' W 092°23'0 0.0
2018-Jul-12 18:00N 29°52' W 092°23'0 0.0
2018-Jul-12 17:30N 29°52' W 092°23'0 0.0
2018-Jul-12 17:01N 29°52' W 092°23'0 0.0
2018-Jul-12 16:30N 29°52' W 092°23'0 0.0
2018-Jul-12 16:00N 29°52' W 092°23'0 0.0
2018-Jul-12 15:30N 29°52' W 092°23'  
Track history (hours):
 
Tides and Currents Weather Stations Pressure Air Temp Water Temp Dewpoint Dewpoint Depression Visibility Wind Speed Wind Dir Waves Ship Positions

Jeff Brumfield

Owner: Florida Marine, LLC, Mandeville, LA. More information available from US FCC via Universal Licensing System and Coast Guard Vessel Documentation Center.

Last reported at 2018-Jul-22 14:27 UTC. Time now 2018-Jul-22 16:40 UTC.
Position N 27°51' W 097°31'.

Length 27 m; draft 3.2 m.

Type: Towing. MMSI: 367340440.

Date/timePositionNaut miles runAvg speedWind from/ knotsBaromVisibWave heightAir tempDewpointWater temp
2018-Jul-22 14:27N 27°51' W 097°31'3 6.9
2018-Jul-22 14:00N 27°49' W 097°28'3 6.4
2018-Jul-22 13:29N 27°49' W 097°24'3 6.9
2018-Jul-22 12:59N 27°49' W 097°20'3 6.9
2018-Jul-22 12:29N 27°49' W 097°16'4 7.4
2018-Jul-22 12:00N 27°49' W 097°12'4 7.7
2018-Jul-22 11:29N 27°50' W 097°08'4 7.9
2018-Jul-22 10:59N 27°51' W 097°04'2 4.5
2018-Jul-22 10:30N 27°53' W 097°03'3 5.6
2018-Jul-22 10:00N 27°56' W 097°03'3 5.7
2018-Jul-22 09:30N 27°59' W 097°03'3 6.4
2018-Jul-22 09:00N 28°01' W 097°01'3 6.3
2018-Jul-22 08:30N 28°03' W 096°59'3 6.3
2018-Jul-22 07:59N 28°06' W 096°56'3 5.5
2018-Jul-22 07:30N 28°08' W 096°55'3 5.6
2018-Jul-22 07:00N 28°10' W 096°52'3 5.5
2018-Jul-22 06:23N 28°12' W 096°49'2 5.1
2018-Jul-22 05:59N 28°14' W 096°48'1 1.4
2018-Jul-22 05:26N 28°14' W 096°47'3 6.4
2018-Jul-22 04:59N 28°16' W 096°44'3 6.0
2018-Jul-22 04:30N 28°18' W 096°42'3 5.8
2018-Jul-22 03:56N 28°20' W 096°39'2 5.2
2018-Jul-22 03:30N 28°21' W 096°37'3 5.0
2018-Jul-22 03:00N 28°22' W 096°34'3 5.2
2018-Jul-22 02:28N 28°23' W 096°31'2 5.2
2018-Jul-22 02:00N 28°25' W 096°29'3 5.2
2018-Jul-22 01:26N 28°26' W 096°26'37 4.5
2018-Jul-21 17:08N 28°44' W 095°49'1 6.0
2018-Jul-21 17:00N 28°45' W 095°48'5 5.9
2018-Jul-21 16:09N 28°45' W 095°42'2 6.1
2018-Jul-21 15:48N 28°46' W 095°40'2 5.7
2018-Jul-21 15:30N 28°46' W 095°38'3 6.2
2018-Jul-21 14:59N 28°47' W 095°35'3 6.1
2018-Jul-21 14:30N 28°49' W 095°32'6 5.8
2018-Jul-21 13:28N 28°52' W 095°27'2 4.8
2018-Jul-21 13:00N 28°54' W 095°25'1 1.4
2018-Jul-21 12:21N 28°54' W 095°24'1 4.3
2018-Jul-21 12:00N 28°54' W 095°22'1 1.8
2018-Jul-21 11:26N 28°54' W 095°23'1 2.8
2018-Jul-21 11:00N 28°54' W 095°24'0 0.8
2018-Jul-21 10:28N 28°54' W 095°24'2 3.6
2018-Jul-21 10:00N 28°54' W 095°22'0 0.7
2018-Jul-21 09:30N 28°54' W 095°22'3 5.5
2018-Jul-21 09:00N 28°56' W 095°19'3 5.3
2018-Jul-21 08:30N 28°58' W 095°17'3 5.5
2018-Jul-21 08:00N 29°00' W 095°15'3 5.3
2018-Jul-21 07:30N 29°02' W 095°14'2 5.0
2018-Jul-21 07:00N 29°05' W 095°13'3 4.9
2018-Jul-21 06:27N 29°07' W 095°11'2 4.9
2018-Jul-21 06:00N 29°09' W 095°09'3 5.5
2018-Jul-21 05:30N 29°10' W 095°07'3 5.9
2018-Jul-21 05:00N 29°12' W 095°04'3 5.3
2018-Jul-21 04:30N 29°14' W 095°02'3 5.4
2018-Jul-21 04:00N 29°16' W 094°60'2 4.5
2018-Jul-21 03:30N 29°17' W 094°58'3 5.2
2018-Jul-21 03:00N 29°17' W 094°55'3 5.3
2018-Jul-21 02:30N 29°19' W 094°52'3 6.1
2018-Jul-21 02:00N 29°21' W 094°50'3 6.1
2018-Jul-21 01:30N 29°23' W 094°47'3 5.0
2018-Jul-21 01:00N 29°24' W 094°45'3 6.4
2018-Jul-21 00:30N 29°26' W 094°42'2 4.0
2018-Jul-21 00:00N 29°28' W 094°40'3 6.3
2018-Jul-20 23:30N 29°29' W 094°37'3 6.6
2018-Jul-20 23:00N 29°30' W 094°33'3 6.6
2018-Jul-20 22:30N 29°31' W 094°30'3 6.5
2018-Jul-20 22:00N 29°34' W 094°27'3 5.1
2018-Jul-20 21:28N 29°35' W 094°25'3 5.6
2018-Jul-20 21:00N 29°36' W 094°22'3 6.1
2018-Jul-20 20:30N 29°38' W 094°19'3 6.2
2018-Jul-20 20:00N 29°39' W 094°16'3 6.2
2018-Jul-20 19:30N 29°41' W 094°13'3 6.0
2018-Jul-20 19:00N 29°41' W 094°09'3 6.0
2018-Jul-20 18:30N 29°43' W 094°07'3 5.8
2018-Jul-20 18:00N 29°45' W 094°04'3 5.7
2018-Jul-20 17:30N 29°47' W 094°02'3 5.7
2018-Jul-20 17:00N 29°49' W 093°59'3 5.3
2018-Jul-20 16:30N 29°51' W 093°57'3 6.9
2018-Jul-20 16:00N 29°53' W 093°55'4 7.0
2018-Jul-20 15:30N 29°56' W 093°52'3 5.6
2018-Jul-20 15:00N 29°59' W 093°50'3 5.3
2018-Jul-20 14:30N 29°59' W 093°47'3 6.2
2018-Jul-20 14:00N 30°01' W 093°45'3 5.5
2018-Jul-20 13:30N 30°03' W 093°42'2 4.8
2018-Jul-20 13:00N 30°04' W 093°40'2 4.8
2018-Jul-20 12:30N 30°04' W 093°37'2 4.7
2018-Jul-20 12:00N 30°04' W 093°34'2 4.6
2018-Jul-20 11:30N 30°04' W 093°31'2 4.7
2018-Jul-20 11:00N 30°04' W 093°29'2 4.4
2018-Jul-20 10:30N 30°04' W 093°26'2 4.4
2018-Jul-20 10:00N 30°04' W 093°24'2 4.3
2018-Jul-20 09:30N 30°04' W 093°21'1 1.7
2018-Jul-20 09:00N 30°04' W 093°21'2 3.4
2018-Jul-20 08:30N 30°06' W 093°20'2 4.8
2018-Jul-20 08:00N 30°08' W 093°20'0 0.2
2018-Jul-20 07:30N 30°08' W 093°19'0 0.0
2018-Jul-20 07:00N 30°08' W 093°19'0 0.0
2018-Jul-20 06:30N 30°08' W 093°19'0 0.0
2018-Jul-20 06:00N 30°08' W 093°19'0 0.0
2018-Jul-20 05:30N 30°08' W 093°19'0 0.0
2018-Jul-20 05:00N 30°08' W 093°19'0 0.0
2018-Jul-20 04:30N 30°08' W 093°19'0 0.0
2018-Jul-20 04:00N 30°08' W 093°19'0 0.0
2018-Jul-20 03:30N 30°08' W 093°19'0 0.0
2018-Jul-20 03:00N 30°08' W 093°19'0 0.0
2018-Jul-20 02:30N 30°08' W 093°19'0 0.0
2018-Jul-20 02:00N 30°08' W 093°19'0 0.0
2018-Jul-20 01:30N 30°08' W 093°19'0 0.0
2018-Jul-20 01:00N 30°08' W 093°19'1 2.5
2018-Jul-20 00:30N 30°07' W 093°20'2 4.2
2018-Jul-20 00:00N 30°05' W 093°20'1 2.8
2018-Jul-19 23:30N 30°04' W 093°21'0 0.2
2018-Jul-19 23:00N 30°04' W 093°21'0 0.0
2018-Jul-19 22:30N 30°04' W 093°21'0 0.0
2018-Jul-19 22:00N 30°04' W 093°21'0 0.0
2018-Jul-19 21:30N 30°04' W 093°21'0 0.0
2018-Jul-19 21:00N 30°04' W 093°21'2 3.7
2018-Jul-19 20:30N 30°05' W 093°20'0 0.7
2018-Jul-19 20:00N 30°05' W 093°20'0 0.0
2018-Jul-19 19:30N 30°05' W 093°20'1 1.5
2018-Jul-19 19:00N 30°04' W 093°21'0 0.1
2018-Jul-19 18:30N 30°04' W 093°21'0 0.0
2018-Jul-19 18:00N 30°04' W 093°21'0 0.0
2018-Jul-19 17:30N 30°04' W 093°21'0 0.0
2018-Jul-19 17:00N 30°04' W 093°21'1 2.3
2018-Jul-19 16:30N 30°05' W 093°20'2 3.6
2018-Jul-19 16:00N 30°06' W 093°18'0 0.1
2018-Jul-19 15:30N 30°06' W 093°18'3 5.8
2018-Jul-19 15:00N 30°04' W 093°21'4 4.1
2018-Jul-19 14:00N 30°08' W 093°19'0 0.2
2018-Jul-19 13:30N 30°08' W 093°19'0 0.0
2018-Jul-19 13:00N 30°08' W 093°19'0 0.0
2018-Jul-19 12:30N 30°08' W 093°19'0 0.0
2018-Jul-19 12:00N 30°08' W 093°19'0 0.0
2018-Jul-19 11:30N 30°08' W 093°19'0 0.0
2018-Jul-19 11:00N 30°08' W 093°19'0 0.0
2018-Jul-19 10:30N 30°08' W 093°19'0 0.0
2018-Jul-19 10:00N 30°08' W 093°19'0 0.0
2018-Jul-19 09:30N 30°08' W 093°19'0 0.0
2018-Jul-19 09:00N 30°08' W 093°19'0 0.0
2018-Jul-19 08:30N 30°08' W 093°19'0 0.0
2018-Jul-19 08:00N 30°08' W 093°19'0 0.0
2018-Jul-19 07:30N 30°08' W 093°19'0 0.0
2018-Jul-19 07:00N 30°08' W 093°19'0 0.0
2018-Jul-19 06:30N 30°08' W 093°19'0 0.0
2018-Jul-19 06:00N 30°08' W 093°19'0 0.0
2018-Jul-19 05:30N 30°08' W 093°19'0 0.0
2018-Jul-19 05:00N 30°08' W 093°19'0 0.0
2018-Jul-19 04:30N 30°08' W 093°19'0 0.0
2018-Jul-19 04:00N 30°08' W 093°19'0 0.1
2018-Jul-19 03:30N 30°08' W 093°19'0 0.0
2018-Jul-19 03:00N 30°08' W 093°19'0 0.0
2018-Jul-19 02:30N 30°08' W 093°19'0 0.0
2018-Jul-19 01:59N 30°08' W 093°19'0 0.0
2018-Jul-19 01:30N 30°08' W 093°19'0 0.0
2018-Jul-19 01:00N 30°08' W 093°19'0 0.1
2018-Jul-19 00:30N 30°08' W 093°20'0 0.6
2018-Jul-19 00:00N 30°08' W 093°20'2 4.4
2018-Jul-18 23:30N 30°06' W 093°20'1 2.3
2018-Jul-18 23:00N 30°06' W 093°18'1 2.0
2018-Jul-18 22:30N 30°05' W 093°17'1 1.7
2018-Jul-18 22:00N 30°05' W 093°17'0 0.0
2018-Jul-18 21:30N 30°05' W 093°17'0 0.0
2018-Jul-18 21:00N 30°05' W 093°17'0 0.0
2018-Jul-18 20:30N 30°05' W 093°17'0 0.0
2018-Jul-18 20:00N 30°05' W 093°17'0 0.0
2018-Jul-18 19:30N 30°05' W 093°17'0 0.0
2018-Jul-18 19:00N 30°05' W 093°17'0 0.0
2018-Jul-18 18:30N 30°05' W 093°17'0 0.0
2018-Jul-18 18:00N 30°05' W 093°17'0 0.0
2018-Jul-18 17:30N 30°05' W 093°17'0 0.0
2018-Jul-18 17:00N 30°05' W 093°17'0 0.0
2018-Jul-18 16:30N 30°05' W 093°17'0 0.0
2018-Jul-18 16:00N 30°05' W 093°17'0 0.0
2018-Jul-18 15:30N 30°05' W 093°17'0 0.0
2018-Jul-18 15:00N 30°05' W 093°17'0 0.0
2018-Jul-18 14:30N 30°05' W 093°17'0 0.0
2018-Jul-18 13:30N 30°05' W 093°17'0 0.0
2018-Jul-18 13:00N 30°05' W 093°17'0 0.0
2018-Jul-18 12:30N 30°05' W 093°17'0 0.0
2018-Jul-18 12:00N 30°05' W 093°17'0 0.0
2018-Jul-18 11:30N 30°05' W 093°17'0 0.0
2018-Jul-18 10:30N 30°05' W 093°17'0 0.0
2018-Jul-18 10:00N 30°05' W 093°17'0 0.0
2018-Jul-18 09:30N 30°05' W 093°17'0 0.0
2018-Jul-18 09:00N 30°05' W 093°17'0 0.0
2018-Jul-18 08:30N 30°05' W 093°17'0 0.0
2018-Jul-18 07:59N 30°05' W 093°17'0 0.0
2018-Jul-18 07:30N 30°05' W 093°17'0 0.0
2018-Jul-18 07:00N 30°05' W 093°17'0 0.0
2018-Jul-18 06:30N 30°05' W 093°17'0 0.0
2018-Jul-18 06:00N 30°05' W 093°17'0 0.0
2018-Jul-18 05:30N 30°05' W 093°17'0 0.0
2018-Jul-18 04:59N 30°05' W 093°17'0 0.0
2018-Jul-18 04:30N 30°05' W 093°17'0 0.0
2018-Jul-18 04:00N 30°05' W 093°17'0 0.0
2018-Jul-18 03:30N 30°05' W 093°17'0 0.0
2018-Jul-18 03:00N 30°05' W 093°17'0 0.1
2018-Jul-18 02:30N 30°05' W 093°17'0 0.0
2018-Jul-18 02:00N 30°05' W 093°17'0 0.0
2018-Jul-18 01:27N 30°05' W 093°17'0 0.0
2018-Jul-18 01:00N 30°05' W 093°17'0 0.0
2018-Jul-18 00:30N 30°05' W 093°17'0 0.0
2018-Jul-18 00:00N 30°05' W 093°17'1 2.6
2018-Jul-17 23:30N 30°03' W 093°16'0 0.5
2018-Jul-17 23:00N 30°03' W 093°16'0 0.3
2018-Jul-17 22:30N 30°03' W 093°16'1 1.1
2018-Jul-17 22:00N 30°03' W 093°16'0 0.1
2018-Jul-17 21:30N 30°03' W 093°16'0 0.0
2018-Jul-17 21:00N 30°03' W 093°16'0 0.0
2018-Jul-17 20:30N 30°03' W 093°16'0 0.0
2018-Jul-17 20:00N 30°03' W 093°16'0 0.0
2018-Jul-17 19:30N 30°03' W 093°16'0 0.0
2018-Jul-17 19:00N 30°03' W 093°16'0 0.0
2018-Jul-17 18:30N 30°03' W 093°16'0 0.0
2018-Jul-17 18:00N 30°03' W 093°16'0 0.0
2018-Jul-17 17:30N 30°03' W 093°16'0 0.0
2018-Jul-17 17:00N 30°03' W 093°16'0 0.0
2018-Jul-17 16:30N 30°03' W 093°16'0 0.0
2018-Jul-17 16:00N 30°03' W 093°16'0 0.0
2018-Jul-17 15:30N 30°03' W 093°16'0 0.0
2018-Jul-17 15:00N 30°03' W 093°16'0 0.0
2018-Jul-17 14:30N 30°03' W 093°16'0 0.0
2018-Jul-17 14:00N 30°03' W 093°16'0 0.0
2018-Jul-17 13:30N 30°03' W 093°16'0 0.0
2018-Jul-17 13:00N 30°03' W 093°16'0 0.0
2018-Jul-17 12:29N 30°03' W 093°16'0 0.2
2018-Jul-17 12:00N 30°03' W 093°16'1 1.8
2018-Jul-17 11:30N 30°02' W 093°15'2 3.9
2018-Jul-17 11:00N 30°00' W 093°14'1 2.2
2018-Jul-17 10:30N 29°59' W 093°13'0 0.1
2018-Jul-17 10:00N 29°59' W 093°13'0 1.0
2018-Jul-17 09:30N 29°59' W 093°12'1 2.1
2018-Jul-17 09:00N 29°58' W 093°12'0 1.0
2018-Jul-17 08:30N 29°58' W 093°11'0 0.0
2018-Jul-17 08:00N 29°58' W 093°11'0 0.0
2018-Jul-17 07:30N 29°58' W 093°11'0 0.1
2018-Jul-17 07:00N 29°58' W 093°11'0 0.0
2018-Jul-17 06:28N 29°58' W 093°11'0 0.0
2018-Jul-17 06:00N 29°58' W 093°11'0 0.0
2018-Jul-17 05:20N 29°58' W 093°11'0 0.0
2018-Jul-17 05:00N 29°58' W 093°11'0 0.0
2018-Jul-17 04:22N 29°58' W 093°11'0 0.1
2018-Jul-17 03:58N 29°58' W 093°11'0 0.1
2018-Jul-17 03:30N 29°58' W 093°11'0 0.0
2018-Jul-17 03:00N 29°58' W 093°11'0 0.0
2018-Jul-17 02:30N 29°58' W 093°11'0 0.0
2018-Jul-17 02:00N 29°58' W 093°11'0 0.0
2018-Jul-17 01:30N 29°58' W 093°11'0 0.0
2018-Jul-17 01:00N 29°58' W 093°11'0 0.0
2018-Jul-17 00:30N 29°58' W 093°11'0 0.0
2018-Jul-16 23:30N 29°58' W 093°11'0 0.0
2018-Jul-16 23:00N 29°58' W 093°11'0 0.0
2018-Jul-16 22:30N 29°58' W 093°11'0 0.0
2018-Jul-16 22:00N 29°58' W 093°11'0 0.0
2018-Jul-16 21:30N 29°58' W 093°11'0 0.0
2018-Jul-16 21:00N 29°58' W 093°11'0 0.0
2018-Jul-16 20:30N 29°58' W 093°11'0 0.0
2018-Jul-16 20:00N 29°58' W 093°11'0 0.0
2018-Jul-16 19:30N 29°58' W 093°11'0 0.0
2018-Jul-16 19:00N 29°58' W 093°11'0 0.0
2018-Jul-16 18:30N 29°58' W 093°11'0 0.0
2018-Jul-16 18:00N 29°58' W 093°11'0 0.0
2018-Jul-16 17:30N 29°58' W 093°11'0 0.0
2018-Jul-16 17:00N 29°58' W 093°11'0 0.0
2018-Jul-16 16:30N 29°58' W 093°11'0 0.0
2018-Jul-16 16:00N 29°58' W 093°11'0 0.0
2018-Jul-16 15:30N 29°58' W 093°11'0 0.0
2018-Jul-16 15:00N 29°58' W 093°11'0 0.1
2018-Jul-16 14:30N 29°58' W 093°11'0 0.0
2018-Jul-16 14:00N 29°58' W 093°11'0 0.0
2018-Jul-16 13:28N 29°58' W 093°11'0 0.4
2018-Jul-16 13:00N 29°58' W 093°11'2 4.4
2018-Jul-16 12:30N 29°56' W 093°09'1 1.4
2018-Jul-16 11:57N 29°56' W 093°08'0 0.0
2018-Jul-16 11:29N 29°56' W 093°08'0 0.0
2018-Jul-16 10:55N 29°56' W 093°08'0 0.0
2018-Jul-16 10:31N 29°56' W 093°08'0 0.0
2018-Jul-16 09:57N 29°56' W 093°08'0 0.0
2018-Jul-16 09:30N 29°56' W 093°08'0 0.0
2018-Jul-16 09:00N 29°56' W 093°08'0 0.0
2018-Jul-16 08:30N 29°56' W 093°08'0 0.0
2018-Jul-16 07:58N 29°56' W 093°08'0 0.0
2018-Jul-16 07:29N 29°56' W 093°08'0 0.0
2018-Jul-16 06:58N 29°56' W 093°08'0 0.2
2018-Jul-16 06:30N 29°56' W 093°08'1 1.9
2018-Jul-16 05:58N 29°56' W 093°07'2 3.3
2018-Jul-16 05:27N 29°56' W 093°05'34 1.0
2018-Jul-14 19:22N 29°53' W 092°26'2 5.2
2018-Jul-14 19:00N 29°53' W 092°24'3 4.7
2018-Jul-14 18:27N 29°52' W 092°22'2 4.2
2018-Jul-14 18:00N 29°51' W 092°20'2 4.0
2018-Jul-14 17:30N 29°50' W 092°18'0 0.1
2018-Jul-14 17:00N 29°50' W 092°18'0 0.2
2018-Jul-14 16:30N 29°50' W 092°18'0 0.0
2018-Jul-14 16:00N 29°50' W 092°18'0 0.0
2018-Jul-14 15:30N 29°50' W 092°18'0 0.0
2018-Jul-14 15:00N 29°50' W 092°18'0 0.0
2018-Jul-14 14:30N 29°50' W 092°18'0 0.0
2018-Jul-14 13:30N 29°50' W 092°18'0 0.0
2018-Jul-14 13:00N 29°50' W 092°18'0 0.0
2018-Jul-14 12:30N 29°50' W 092°18'0 0.0
2018-Jul-14 12:00N 29°50' W 092°18'0 0.0
2018-Jul-14 11:30N 29°50' W 092°18'0 0.0
2018-Jul-14 11:00N 29°50' W 092°18'0 0.0
2018-Jul-14 10:30N 29°50' W 092°18'0 0.0
2018-Jul-14 10:00N 29°50' W 092°18'0 0.0
2018-Jul-14 09:30N 29°50' W 092°18'0 0.0
2018-Jul-14 09:00N 29°50' W 092°18'0 0.0
2018-Jul-14 08:30N 29°50' W 092°18'0 0.0
2018-Jul-14 07:57N 29°50' W 092°18'0 0.0
2018-Jul-14 07:30N 29°50' W 092°18'0 0.0
2018-Jul-14 07:00N 29°50' W 092°18'0 0.0
2018-Jul-14 06:30N 29°50' W 092°18'0 0.0
2018-Jul-14 06:00N 29°50' W 092°18'0 0.0
2018-Jul-14 05:30N 29°50' W 092°18'0 0.0
2018-Jul-14 05:00N 29°50' W 092°18'0 0.0
2018-Jul-14 04:30N 29°50' W 092°18'0 0.0
2018-Jul-14 04:00N 29°50' W 092°18'0 0.0
2018-Jul-14 03:27N 29°50' W 092°18'0 0.0
2018-Jul-14 03:00N 29°50' W 092°18'0 0.0
2018-Jul-14 02:30N 29°50' W 092°18'0 0.0
2018-Jul-14 02:00N 29°50' W 092°18'0 0.0
2018-Jul-14 01:27N 29°50' W 092°18'0 0.0
2018-Jul-14 01:00N 29°50' W 092°18'0 0.0
2018-Jul-14 00:27N 29°50' W 092°18'0 0.0
2018-Jul-14 00:00N 29°50' W 092°18'0 0.0
2018-Jul-13 23:30N 29°50' W 092°18'0 0.0
2018-Jul-13 23:00N 29°50' W 092°18'0 0.0
2018-Jul-13 22:30N 29°50' W 092°18'0 0.0
2018-Jul-13 22:00N 29°50' W 092°18'0 0.0
2018-Jul-13 21:30N 29°50' W 092°18'0 0.0
2018-Jul-13 21:00N 29°50' W 092°18'0 0.0
2018-Jul-13 20:30N 29°50' W 092°18'0 0.0
2018-Jul-13 20:00N 29°50' W 092°18'0 0.0
2018-Jul-13 19:30N 29°50' W 092°18'0 0.0
2018-Jul-13 19:00N 29°50' W 092°18'0 0.0
2018-Jul-13 18:30N 29°50' W 092°18'0 0.0
2018-Jul-13 17:57N 29°50' W 092°18'0 0.0
2018-Jul-13 17:30N 29°50' W 092°18'0 0.0
2018-Jul-13 17:00N 29°50' W 092°18'0 0.0
2018-Jul-13 16:30N 29°50' W 092°18'0 0.0
2018-Jul-13 16:00N 29°50' W 092°18'0 0.0
2018-Jul-13 15:30N 29°50' W 092°18'0 0.0
2018-Jul-13 15:00N 29°50' W 092°18'0 0.0
2018-Jul-13 14:00N 29°50' W 092°18'0 0.0
2018-Jul-13 13:30N 29°50' W 092°18'0 0.0
2018-Jul-13 13:00N 29°50' W 092°18'0 0.0
2018-Jul-13 12:30N 29°50' W 092°18'0 0.0
2018-Jul-13 12:00N 29°50' W 092°18'0 0.0
2018-Jul-13 11:27N 29°50' W 092°18'0 0.0
2018-Jul-13 10:54N 29°50' W 092°18'0 0.0
2018-Jul-13 10:27N 29°50' W 092°18'0 0.0
2018-Jul-13 10:00N 29°50' W 092°18'0 0.0
2018-Jul-13 09:30N 29°50' W 092°18'0 0.0
2018-Jul-13 09:00N 29°50' W 092°18'0 0.0
2018-Jul-13 08:22N 29°50' W 092°18'0 0.0
2018-Jul-13 08:00N 29°50' W 092°18'0 0.0
2018-Jul-13 07:31N 29°50' W 092°18'0 0.0
2018-Jul-13 07:00N 29°50' W 092°18'0 0.0
2018-Jul-13 06:28N 29°50' W 092°18'0 0.0
2018-Jul-13 06:00N 29°50' W 092°18'0 0.0
2018-Jul-13 05:30N 29°50' W 092°18'0 0.0
2018-Jul-13 05:00N 29°50' W 092°18'0 0.0
2018-Jul-13 04:30N 29°50' W 092°18'0 0.0
2018-Jul-13 04:00N 29°50' W 092°18'0 0.0
2018-Jul-13 03:30N 29°50' W 092°18'0 0.0
2018-Jul-13 03:01N 29°50' W 092°18'0 0.0
2018-Jul-13 02:30N 29°50' W 092°18'0 0.0
2018-Jul-13 02:00N 29°50' W 092°18'0 0.0
2018-Jul-13 01:30N 29°50' W 092°18'0 0.0
2018-Jul-13 01:01N 29°50' W 092°18'0 0.0
2018-Jul-13 00:29N 29°50' W 092°18'0 0.1
2018-Jul-13 00:00N 29°50' W 092°18'0 0.0
2018-Jul-12 23:30N 29°50' W 092°18'1 1.6
2018-Jul-12 23:01N 29°50' W 092°19'3 5.0
2018-Jul-12 22:30N 29°51' W 092°22'1 3.0
2018-Jul-12 22:00N 29°52' W 092°23'0 0.0
2018-Jul-12 21:30N 29°52' W 092°23'0 0.0
2018-Jul-12 21:00N 29°52' W 092°23'0 0.0
2018-Jul-12 20:31N 29°52' W 092°23'0 0.0
2018-Jul-12 20:01N 29°52' W 092°23'0 0.0
2018-Jul-12 19:30N 29°52' W 092°23'0 0.0
2018-Jul-12 19:01N 29°52' W 092°23'0 0.0
2018-Jul-12 18:31N 29°52' W 092°23'0 0.0
2018-Jul-12 18:00N 29°52' W 092°23'0 0.0
2018-Jul-12 17:30N 29°52' W 092°23'0 0.0
2018-Jul-12 17:01N 29°52' W 092°23'0 0.0
2018-Jul-12 16:30N 29°52' W 092°23'0 0.0
2018-Jul-12 16:00N 29°52' W 092°23'0 0.0
2018-Jul-12 15:30N 29°52' W 092°23'  

Dump ship's entire track history